sensor_id;sensor_type;location;lat;lon;timestamp;P1;durP1;ratioP1;P2;durP2;ratioP2
19754;SDS011;10036;47.812;9.274;2023-07-29T00:01:19;4.65;;;3.80;;
19754;SDS011;10036;47.812;9.274;2023-07-29T00:03:45;4.72;;;4.28;;
19754;SDS011;10036;47.812;9.274;2023-07-29T00:06:12;5.13;;;4.20;;
19754;SDS011;10036;47.812;9.274;2023-07-29T00:08:39;4.00;;;3.65;;
19754;SDS011;10036;47.812;9.274;2023-07-29T00:11:06;8.38;;;3.92;;
19754;SDS011;10036;47.812;9.274;2023-07-29T00:13:34;4.88;;;3.47;;
19754;SDS011;10036;47.812;9.274;2023-07-29T00:16:01;5.72;;;4.20;;
19754;SDS011;10036;47.812;9.274;2023-07-29T00:18:28;6.60;;;4.03;;
19754;SDS011;10036;47.812;9.274;2023-07-29T00:20:55;3.97;;;3.58;;
19754;SDS011;10036;47.812;9.274;2023-07-29T00:23:22;5.25;;;4.07;;
19754;SDS011;10036;47.812;9.274;2023-07-29T00:25:49;4.32;;;3.92;;
19754;SDS011;10036;47.812;9.274;2023-07-29T00:28:16;6.40;;;3.90;;
19754;SDS011;10036;47.812;9.274;2023-07-29T00:30:44;8.57;;;4.47;;
19754;SDS011;10036;47.812;9.274;2023-07-29T00:33:11;6.68;;;4.40;;
19754;SDS011;10036;47.812;9.274;2023-07-29T00:35:38;4.70;;;4.10;;
19754;SDS011;10036;47.812;9.274;2023-07-29T00:38:05;5.43;;;3.72;;
19754;SDS011;10036;47.812;9.274;2023-07-29T00:40:32;4.20;;;3.80;;
19754;SDS011;10036;47.812;9.274;2023-07-29T00:43:02;4.32;;;3.92;;
19754;SDS011;10036;47.812;9.274;2023-07-29T00:45:29;5.30;;;3.97;;
19754;SDS011;10036;47.812;9.274;2023-07-29T00:47:57;9.20;;;4.28;;
19754;SDS011;10036;47.812;9.274;2023-07-29T00:50:25;6.85;;;3.88;;
19754;SDS011;10036;47.812;9.274;2023-07-29T00:52:53;6.70;;;4.28;;
19754;SDS011;10036;47.812;9.274;2023-07-29T00:55:20;7.38;;;4.05;;
19754;SDS011;10036;47.812;9.274;2023-07-29T00:57:47;10.63;;;4.10;;
19754;SDS011;10036;47.812;9.274;2023-07-29T01:00:16;8.35;;;3.72;;
19754;SDS011;10036;47.812;9.274;2023-07-29T01:02:43;5.70;;;4.03;;
19754;SDS011;10036;47.812;9.274;2023-07-29T01:05:12;5.97;;;4.07;;
19754;SDS011;10036;47.812;9.274;2023-07-29T01:07:43;6.95;;;3.97;;
19754;SDS011;10036;47.812;9.274;2023-07-29T01:10:17;6.35;;;3.85;;
19754;SDS011;10036;47.812;9.274;2023-07-29T01:12:51;6.03;;;3.92;;
19754;SDS011;10036;47.812;9.274;2023-07-29T01:15:28;4.88;;;3.92;;
19754;SDS011;10036;47.812;9.274;2023-07-29T01:17:59;4.22;;;3.83;;
19754;SDS011;10036;47.812;9.274;2023-07-29T01:20:32;7.13;;;4.32;;
19754;SDS011;10036;47.812;9.274;2023-07-29T01:23:02;6.40;;;4.18;;
19754;SDS011;10036;47.812;9.274;2023-07-29T01:25:30;5.53;;;5.00;;
19754;SDS011;10036;47.812;9.274;2023-07-29T01:27:57;7.05;;;5.20;;
19754;SDS011;10036;47.812;9.274;2023-07-29T01:30:25;6.60;;;4.78;;
19754;SDS011;10036;47.812;9.274;2023-07-29T01:32:58;7.57;;;5.07;;
19754;SDS011;10036;47.812;9.274;2023-07-29T01:35:31;5.57;;;4.63;;
19754;SDS011;10036;47.812;9.274;2023-07-29T01:38:01;7.03;;;4.80;;
19754;SDS011;10036;47.812;9.274;2023-07-29T01:40:32;9.40;;;5.40;;
19754;SDS011;10036;47.812;9.274;2023-07-29T01:43:00;7.47;;;5.55;;
19754;SDS011;10036;47.812;9.274;2023-07-29T01:45:27;9.85;;;5.75;;
19754;SDS011;10036;47.812;9.274;2023-07-29T01:47:56;10.45;;;5.40;;
19754;SDS011;10036;47.812;9.274;2023-07-29T01:50:23;7.43;;;5.15;;
19754;SDS011;10036;47.812;9.274;2023-07-29T01:52:50;6.45;;;4.45;;
19754;SDS011;10036;47.812;9.274;2023-07-29T01:55:17;8.15;;;4.90;;
19754;SDS011;10036;47.812;9.274;2023-07-29T01:57:45;9.60;;;4.40;;
19754;SDS011;10036;47.812;9.274;2023-07-29T02:00:12;7.47;;;4.15;;
19754;SDS011;10036;47.812;9.274;2023-07-29T02:02:39;4.47;;;3.33;;
19754;SDS011;10036;47.812;9.274;2023-07-29T02:05:06;5.50;;;3.40;;
19754;SDS011;10036;47.812;9.274;2023-07-29T02:07:33;4.32;;;3.60;;
19754;SDS011;10036;47.812;9.274;2023-07-29T02:10:00;8.20;;;4.22;;
19754;SDS011;10036;47.812;9.274;2023-07-29T02:12:27;9.45;;;5.45;;
19754;SDS011;10036;47.812;9.274;2023-07-29T02:14:55;6.90;;;5.10;;
19754;SDS011;10036;47.812;9.274;2023-07-29T02:17:22;7.80;;;4.00;;
19754;SDS011;10036;47.812;9.274;2023-07-29T02:19:49;5.82;;;4.00;;
19754;SDS011;10036;47.812;9.274;2023-07-29T02:22:16;3.80;;;3.30;;
19754;SDS011;10036;47.812;9.274;2023-07-29T02:24:43;4.45;;;3.20;;
19754;SDS011;10036;47.812;9.274;2023-07-29T02:27:10;5.00;;;3.17;;
19754;SDS011;10036;47.812;9.274;2023-07-29T02:29:37;3.85;;;2.92;;
19754;SDS011;10036;47.812;9.274;2023-07-29T02:32:05;4.85;;;2.90;;
19754;SDS011;10036;47.812;9.274;2023-07-29T02:34:32;4.10;;;2.80;;
19754;SDS011;10036;47.812;9.274;2023-07-29T02:36:59;5.93;;;3.90;;
19754;SDS011;10036;47.812;9.274;2023-07-29T02:39:26;8.05;;;4.18;;
19754;SDS011;10036;47.812;9.274;2023-07-29T02:41:53;8.32;;;5.20;;
19754;SDS011;10036;47.812;9.274;2023-07-29T02:44:21;7.18;;;5.10;;
19754;SDS011;10036;47.812;9.274;2023-07-29T02:46:47;6.35;;;3.80;;
19754;SDS011;10036;47.812;9.274;2023-07-29T02:49:16;7.13;;;4.43;;
19754;SDS011;10036;47.812;9.274;2023-07-29T02:51:43;5.82;;;4.07;;
19754;SDS011;10036;47.812;9.274;2023-07-29T02:54:09;7.10;;;4.60;;
19754;SDS011;10036;47.812;9.274;2023-07-29T02:56:36;4.50;;;4.10;;
19754;SDS011;10036;47.812;9.274;2023-07-29T02:59:03;4.25;;;3.85;;
19754;SDS011;10036;47.812;9.274;2023-07-29T03:01:30;4.32;;;3.80;;
19754;SDS011;10036;47.812;9.274;2023-07-29T03:03:57;4.53;;;3.20;;
19754;SDS011;10036;47.812;9.274;2023-07-29T03:06:25;4.43;;;3.75;;
19754;SDS011;10036;47.812;9.274;2023-07-29T03:08:52;3.25;;;3.05;;
19754;SDS011;10036;47.812;9.274;2023-07-29T03:11:19;6.40;;;3.70;;
19754;SDS011;10036;47.812;9.274;2023-07-29T03:13:46;7.88;;;3.90;;
19754;SDS011;10036;47.812;9.274;2023-07-29T03:16:13;7.88;;;4.70;;
19754;SDS011;10036;47.812;9.274;2023-07-29T03:18:41;8.35;;;4.20;;
19754;SDS011;10036;47.812;9.274;2023-07-29T03:21:09;5.22;;;4.07;;
19754;SDS011;10036;47.812;9.274;2023-07-29T03:23:38;11.52;;;5.57;;
19754;SDS011;10036;47.812;9.274;2023-07-29T03:26:04;11.25;;;5.50;;
19754;SDS011;10036;47.812;9.274;2023-07-29T03:28:35;7.22;;;4.50;;
19754;SDS011;10036;47.812;9.274;2023-07-29T03:31:03;8.57;;;4.00;;
19754;SDS011;10036;47.812;9.274;2023-07-29T03:33:30;7.00;;;4.03;;
19754;SDS011;10036;47.812;9.274;2023-07-29T03:35:57;5.78;;;3.28;;
19754;SDS011;10036;47.812;9.274;2023-07-29T03:38:24;4.50;;;3.50;;
19754;SDS011;10036;47.812;9.274;2023-07-29T03:40:52;5.70;;;4.07;;
19754;SDS011;10036;47.812;9.274;2023-07-29T03:43:19;8.13;;;4.50;;
19754;SDS011;10036;47.812;9.274;2023-07-29T03:45:46;7.40;;;4.43;;
19754;SDS011;10036;47.812;9.274;2023-07-29T03:48:13;6.05;;;4.55;;
19754;SDS011;10036;47.812;9.274;2023-07-29T03:50:40;9.50;;;4.45;;
19754;SDS011;10036;47.812;9.274;2023-07-29T03:53:07;5.30;;;3.55;;
19754;SDS011;10036;47.812;9.274;2023-07-29T03:55:35;4.15;;;3.40;;
19754;SDS011;10036;47.812;9.274;2023-07-29T03:58:03;6.38;;;3.50;;
19754;SDS011;10036;47.812;9.274;2023-07-29T04:00:30;5.28;;;3.70;;
19754;SDS011;10036;47.812;9.274;2023-07-29T04:02:57;3.35;;;3.03;;
19754;SDS011;10036;47.812;9.274;2023-07-29T04:05:24;3.88;;;3.03;;
19754;SDS011;10036;47.812;9.274;2023-07-29T04:07:50;9.45;;;4.70;;
19754;SDS011;10036;47.812;9.274;2023-07-29T04:10:18;8.52;;;4.25;;
19754;SDS011;10036;47.812;9.274;2023-07-29T04:12:45;7.43;;;3.70;;
19754;SDS011;10036;47.812;9.274;2023-07-29T04:15:14;4.70;;;3.17;;
19754;SDS011;10036;47.812;9.274;2023-07-29T04:17:40;6.32;;;3.25;;
19754;SDS011;10036;47.812;9.274;2023-07-29T04:20:08;5.90;;;3.20;;
19754;SDS011;10036;47.812;9.274;2023-07-29T04:22:36;5.47;;;3.30;;
19754;SDS011;10036;47.812;9.274;2023-07-29T04:25:03;9.32;;;4.18;;
19754;SDS011;10036;47.812;9.274;2023-07-29T04:27:30;4.32;;;3.40;;
19754;SDS011;10036;47.812;9.274;2023-07-29T04:29:57;5.13;;;3.38;;
19754;SDS011;10036;47.812;9.274;2023-07-29T04:32:25;9.98;;;4.07;;
19754;SDS011;10036;47.812;9.274;2023-07-29T04:34:52;7.50;;;3.83;;
19754;SDS011;10036;47.812;9.274;2023-07-29T04:37:19;4.53;;;3.80;;
19754;SDS011;10036;47.812;9.274;2023-07-29T04:39:46;5.03;;;3.95;;
19754;SDS011;10036;47.812;9.274;2023-07-29T04:42:13;4.22;;;3.50;;
19754;SDS011;10036;47.812;9.274;2023-07-29T04:44:39;3.83;;;3.45;;
19754;SDS011;10036;47.812;9.274;2023-07-29T04:47:07;4.30;;;3.42;;
19754;SDS011;10036;47.812;9.274;2023-07-29T04:49:35;6.60;;;3.38;;
19754;SDS011;10036;47.812;9.274;2023-07-29T04:52:02;5.82;;;3.40;;
19754;SDS011;10036;47.812;9.274;2023-07-29T04:54:29;4.70;;;3.30;;
19754;SDS011;10036;47.812;9.274;2023-07-29T04:56:56;4.97;;;3.65;;
19754;SDS011;10036;47.812;9.274;2023-07-29T04:59:23;4.95;;;3.80;;
19754;SDS011;10036;47.812;9.274;2023-07-29T05:01:50;4.13;;;3.72;;
19754;SDS011;10036;47.812;9.274;2023-07-29T05:04:16;4.18;;;3.78;;
19754;SDS011;10036;47.812;9.274;2023-07-29T05:06:45;5.10;;;4.22;;
19754;SDS011;10036;47.812;9.274;2023-07-29T05:09:14;6.70;;;4.10;;
19754;SDS011;10036;47.812;9.274;2023-07-29T05:11:42;7.68;;;3.72;;
19754;SDS011;10036;47.812;9.274;2023-07-29T05:14:10;6.32;;;4.07;;
19754;SDS011;10036;47.812;9.274;2023-07-29T05:16:37;5.80;;;3.83;;
19754;SDS011;10036;47.812;9.274;2023-07-29T05:19:04;4.97;;;3.72;;
19754;SDS011;10036;47.812;9.274;2023-07-29T05:21:31;5.57;;;4.20;;
19754;SDS011;10036;47.812;9.274;2023-07-29T05:23:59;5.68;;;3.92;;
19754;SDS011;10036;47.812;9.274;2023-07-29T05:26:26;4.68;;;3.60;;
19754;SDS011;10036;47.812;9.274;2023-07-29T05:28:53;5.97;;;3.50;;
19754;SDS011;10036;47.812;9.274;2023-07-29T05:31:19;5.32;;;3.63;;
19754;SDS011;10036;47.812;9.274;2023-07-29T05:33:46;5.80;;;4.13;;
19754;SDS011;10036;47.812;9.274;2023-07-29T05:36:13;4.30;;;3.90;;
19754;SDS011;10036;47.812;9.274;2023-07-29T05:38:40;4.22;;;3.78;;
19754;SDS011;10036;47.812;9.274;2023-07-29T05:41:08;5.45;;;4.22;;
19754;SDS011;10036;47.812;9.274;2023-07-29T05:43:35;4.55;;;3.97;;
19754;SDS011;10036;47.812;9.274;2023-07-29T05:46:02;4.10;;;3.70;;
19754;SDS011;10036;47.812;9.274;2023-07-29T05:48:29;4.30;;;3.70;;
19754;SDS011;10036;47.812;9.274;2023-07-29T05:50:56;4.93;;;4.10;;
19754;SDS011;10036;47.812;9.274;2023-07-29T05:53:22;4.47;;;4.03;;
19754;SDS011;10036;47.812;9.274;2023-07-29T05:55:49;5.88;;;4.15;;
19754;SDS011;10036;47.812;9.274;2023-07-29T05:58:18;4.07;;;3.67;;
19754;SDS011;10036;47.812;9.274;2023-07-29T06:00:44;7.57;;;4.22;;
19754;SDS011;10036;47.812;9.274;2023-07-29T06:03:11;4.50;;;4.07;;
19754;SDS011;10036;47.812;9.274;2023-07-29T06:05:38;4.28;;;3.88;;
19754;SDS011;10036;47.812;9.274;2023-07-29T06:08:05;5.03;;;3.63;;
19754;SDS011;10036;47.812;9.274;2023-07-29T06:10:33;4.43;;;3.65;;
19754;SDS011;10036;47.812;9.274;2023-07-29T06:13:00;4.22;;;3.80;;
19754;SDS011;10036;47.812;9.274;2023-07-29T06:15:28;6.32;;;4.63;;
19754;SDS011;10036;47.812;9.274;2023-07-29T06:17:55;7.70;;;5.65;;
19754;SDS011;10036;47.812;9.274;2023-07-29T06:20:22;6.65;;;4.57;;
19754;SDS011;10036;47.812;9.274;2023-07-29T06:22:49;5.15;;;4.65;;
19754;SDS011;10036;47.812;9.274;2023-07-29T06:25:15;5.43;;;4.90;;
19754;SDS011;10036;47.812;9.274;2023-07-29T06:27:42;5.35;;;4.85;;
19754;SDS011;10036;47.812;9.274;2023-07-29T06:30:09;5.10;;;4.55;;
19754;SDS011;10036;47.812;9.274;2023-07-29T06:32:38;5.80;;;5.18;;
19754;SDS011;10036;47.812;9.274;2023-07-29T06:35:05;6.90;;;5.40;;
19754;SDS011;10036;47.812;9.274;2023-07-29T06:37:32;5.55;;;4.88;;
19754;SDS011;10036;47.812;9.274;2023-07-29T06:39:59;5.55;;;4.95;;
19754;SDS011;10036;47.812;9.274;2023-07-29T06:42:26;5.53;;;4.80;;
19754;SDS011;10036;47.812;9.274;2023-07-29T06:44:53;7.38;;;5.18;;
19754;SDS011;10036;47.812;9.274;2023-07-29T06:47:19;5.60;;;5.10;;
19754;SDS011;10036;47.812;9.274;2023-07-29T06:49:48;4.95;;;4.43;;
19754;SDS011;10036;47.812;9.274;2023-07-29T06:52:14;5.38;;;4.68;;
19754;SDS011;10036;47.812;9.274;2023-07-29T06:54:41;6.18;;;5.57;;
19754;SDS011;10036;47.812;9.274;2023-07-29T06:57:08;6.00;;;5.40;;
19754;SDS011;10036;47.812;9.274;2023-07-29T06:59:35;5.15;;;4.60;;
19754;SDS011;10036;47.812;9.274;2023-07-29T07:02:02;7.50;;;4.90;;
19754;SDS011;10036;47.812;9.274;2023-07-29T07:04:29;6.93;;;4.82;;
19754;SDS011;10036;47.812;9.274;2023-07-29T07:06:57;4.93;;;4.43;;
19754;SDS011;10036;47.812;9.274;2023-07-29T07:09:24;6.03;;;4.70;;
19754;SDS011;10036;47.812;9.274;2023-07-29T07:11:51;5.65;;;5.05;;
19754;SDS011;10036;47.812;9.274;2023-07-29T07:14:18;6.15;;;4.82;;
19754;SDS011;10036;47.812;9.274;2023-07-29T07:16:45;5.18;;;4.70;;
19754;SDS011;10036;47.812;9.274;2023-07-29T07:19:12;5.60;;;4.40;;
19754;SDS011;10036;47.812;9.274;2023-07-29T07:21:39;5.90;;;4.47;;
19754;SDS011;10036;47.812;9.274;2023-07-29T07:24:07;4.68;;;4.28;;
19754;SDS011;10036;47.812;9.274;2023-07-29T07:26:34;5.82;;;4.70;;
19754;SDS011;10036;47.812;9.274;2023-07-29T07:29:01;4.47;;;4.07;;
19754;SDS011;10036;47.812;9.274;2023-07-29T07:31:27;5.30;;;4.32;;
19754;SDS011;10036;47.812;9.274;2023-07-29T07:33:54;5.70;;;4.20;;
19754;SDS011;10036;47.812;9.274;2023-07-29T07:36:21;5.38;;;4.32;;
19754;SDS011;10036;47.812;9.274;2023-07-29T07:38:48;4.85;;;4.30;;
19754;SDS011;10036;47.812;9.274;2023-07-29T07:41:16;5.78;;;4.03;;
19754;SDS011;10036;47.812;9.274;2023-07-29T07:43:43;5.32;;;4.55;;
19754;SDS011;10036;47.812;9.274;2023-07-29T07:46:10;7.82;;;4.60;;
19754;SDS011;10036;47.812;9.274;2023-07-29T07:48:38;5.47;;;4.50;;
19754;SDS011;10036;47.812;9.274;2023-07-29T07:51:11;5.88;;;4.22;;
19754;SDS011;10036;47.812;9.274;2023-07-29T07:53:38;6.57;;;4.32;;
19754;SDS011;10036;47.812;9.274;2023-07-29T07:56:05;4.90;;;4.30;;
19754;SDS011;10036;47.812;9.274;2023-07-29T07:58:33;5.10;;;4.40;;
19754;SDS011;10036;47.812;9.274;2023-07-29T08:01:01;4.68;;;4.22;;
19754;SDS011;10036;47.812;9.274;2023-07-29T08:03:29;8.35;;;4.13;;
19754;SDS011;10036;47.812;9.274;2023-07-29T08:05:55;8.35;;;7.53;;
19754;SDS011;10036;47.812;9.274;2023-07-29T08:08:22;6.78;;;6.13;;
19754;SDS011;10036;47.812;9.274;2023-07-29T08:10:49;5.35;;;4.85;;
19754;SDS011;10036;47.812;9.274;2023-07-29T08:13:16;7.35;;;4.70;;
19754;SDS011;10036;47.812;9.274;2023-07-29T08:15:46;6.30;;;4.72;;
19754;SDS011;10036;47.812;9.274;2023-07-29T08:18:14;4.45;;;4.05;;
19754;SDS011;10036;47.812;9.274;2023-07-29T08:20:41;4.85;;;4.07;;
19754;SDS011;10036;47.812;9.274;2023-07-29T08:23:17;5.10;;;4.05;;
19754;SDS011;10036;47.812;9.274;2023-07-29T08:25:44;5.63;;;4.57;;
19754;SDS011;10036;47.812;9.274;2023-07-29T08:28:10;4.50;;;4.10;;
19754;SDS011;10036;47.812;9.274;2023-07-29T08:30:37;6.25;;;4.20;;
19754;SDS011;10036;47.812;9.274;2023-07-29T08:33:05;4.50;;;4.00;;
19754;SDS011;10036;47.812;9.274;2023-07-29T08:35:32;4.13;;;3.80;;
19754;SDS011;10036;47.812;9.274;2023-07-29T08:37:59;4.65;;;4.25;;
19754;SDS011;10036;47.812;9.274;2023-07-29T08:40:27;5.72;;;4.07;;
19754;SDS011;10036;47.812;9.274;2023-07-29T08:42:56;4.85;;;4.10;;
19754;SDS011;10036;47.812;9.274;2023-07-29T08:45:30;4.45;;;3.92;;
19754;SDS011;10036;47.812;9.274;2023-07-29T08:48:00;4.53;;;4.13;;
19754;SDS011;10036;47.812;9.274;2023-07-29T08:50:34;5.35;;;4.32;;
19754;SDS011;10036;47.812;9.274;2023-07-29T08:53:02;4.68;;;4.10;;
19754;SDS011;10036;47.812;9.274;2023-07-29T08:55:30;6.32;;;4.35;;
19754;SDS011;10036;47.812;9.274;2023-07-29T08:57:58;4.78;;;4.00;;
19754;SDS011;10036;47.812;9.274;2023-07-29T09:00:26;6.43;;;4.05;;
19754;SDS011;10036;47.812;9.274;2023-07-29T09:02:53;6.15;;;4.22;;
19754;SDS011;10036;47.812;9.274;2023-07-29T09:05:23;5.53;;;4.03;;
19754;SDS011;10036;47.812;9.274;2023-07-29T09:07:51;6.30;;;4.40;;
19754;SDS011;10036;47.812;9.274;2023-07-29T09:10:21;6.15;;;4.10;;
19754;SDS011;10036;47.812;9.274;2023-07-29T09:12:49;7.22;;;4.20;;
19754;SDS011;10036;47.812;9.274;2023-07-29T09:15:25;8.30;;;4.50;;
19754;SDS011;10036;47.812;9.274;2023-07-29T09:17:55;4.88;;;4.15;;
19754;SDS011;10036;47.812;9.274;2023-07-29T09:20:25;6.47;;;4.05;;
19754;SDS011;10036;47.812;9.274;2023-07-29T09:22:55;5.53;;;4.10;;
19754;SDS011;10036;47.812;9.274;2023-07-29T09:25:24;6.00;;;3.78;;
19754;SDS011;10036;47.812;9.274;2023-07-29T09:27:52;6.32;;;3.72;;
19754;SDS011;10036;47.812;9.274;2023-07-29T09:30:20;6.78;;;4.30;;
19754;SDS011;10036;47.812;9.274;2023-07-29T09:32:47;3.95;;;3.55;;
19754;SDS011;10036;47.812;9.274;2023-07-29T09:35:18;4.82;;;3.90;;
19754;SDS011;10036;47.812;9.274;2023-07-29T09:37:45;4.22;;;3.60;;
19754;SDS011;10036;47.812;9.274;2023-07-29T09:40:14;3.60;;;3.13;;
19754;SDS011;10036;47.812;9.274;2023-07-29T09:42:47;5.22;;;3.80;;
19754;SDS011;10036;47.812;9.274;2023-07-29T09:45:19;5.25;;;3.55;;
19754;SDS011;10036;47.812;9.274;2023-07-29T09:47:47;3.67;;;3.20;;
19754;SDS011;10036;47.812;9.274;2023-07-29T09:50:14;3.83;;;3.20;;
19754;SDS011;10036;47.812;9.274;2023-07-29T09:52:41;3.95;;;3.50;;
19754;SDS011;10036;47.812;9.274;2023-07-29T09:55:09;4.00;;;3.58;;
19754;SDS011;10036;47.812;9.274;2023-07-29T09:57:39;6.35;;;3.40;;
19754;SDS011;10036;47.812;9.274;2023-07-29T10:00:06;4.00;;;3.60;;
19754;SDS011;10036;47.812;9.274;2023-07-29T10:02:36;4.00;;;3.22;;
19754;SDS011;10036;47.812;9.274;2023-07-29T10:05:04;5.93;;;3.42;;
19754;SDS011;10036;47.812;9.274;2023-07-29T10:07:33;4.18;;;3.40;;
19754;SDS011;10036;47.812;9.274;2023-07-29T10:10:01;5.07;;;3.45;;
19754;SDS011;10036;47.812;9.274;2023-07-29T10:12:30;5.00;;;3.30;;
19754;SDS011;10036;47.812;9.274;2023-07-29T10:15:00;5.28;;;3.10;;
19754;SDS011;10036;47.812;9.274;2023-07-29T10:17:29;4.32;;;3.00;;
19754;SDS011;10036;47.812;9.274;2023-07-29T10:19:56;3.17;;;2.75;;
19754;SDS011;10036;47.812;9.274;2023-07-29T10:22:24;4.93;;;3.15;;
19754;SDS011;10036;47.812;9.274;2023-07-29T10:24:54;3.60;;;2.92;;
19754;SDS011;10036;47.812;9.274;2023-07-29T10:27:23;5.05;;;3.33;;
19754;SDS011;10036;47.812;9.274;2023-07-29T10:29:53;3.13;;;2.83;;
19754;SDS011;10036;47.812;9.274;2023-07-29T10:32:24;4.10;;;2.92;;
19754;SDS011;10036;47.812;9.274;2023-07-29T10:34:52;3.95;;;2.92;;
19754;SDS011;10036;47.812;9.274;2023-07-29T10:37:19;3.80;;;2.88;;
19754;SDS011;10036;47.812;9.274;2023-07-29T10:39:52;3.30;;;3.05;;
19754;SDS011;10036;47.812;9.274;2023-07-29T10:42:21;4.07;;;3.13;;
19754;SDS011;10036;47.812;9.274;2023-07-29T10:44:49;5.07;;;3.20;;
19754;SDS011;10036;47.812;9.274;2023-07-29T10:47:17;3.70;;;3.17;;
19754;SDS011;10036;47.812;9.274;2023-07-29T10:49:48;4.90;;;3.00;;
19754;SDS011;10036;47.812;9.274;2023-07-29T10:52:27;2.90;;;2.70;;
19754;SDS011;10036;47.812;9.274;2023-07-29T10:54:56;2.50;;;2.30;;
19754;SDS011;10036;47.812;9.274;2023-07-29T10:57:30;2.88;;;2.63;;
19754;SDS011;10036;47.812;9.274;2023-07-29T10:59:58;3.05;;;2.30;;
19754;SDS011;10036;47.812;9.274;2023-07-29T11:02:28;3.15;;;2.53;;
19754;SDS011;10036;47.812;9.274;2023-07-29T11:04:58;4.20;;;2.50;;
19754;SDS011;10036;47.812;9.274;2023-07-29T11:07:25;3.55;;;2.55;;
19754;SDS011;10036;47.812;9.274;2023-07-29T11:09:54;3.90;;;3.13;;
19754;SDS011;10036;47.812;9.274;2023-07-29T11:12:35;4.85;;;3.15;;
19754;SDS011;10036;47.812;9.274;2023-07-29T11:15:17;3.50;;;2.70;;
19754;SDS011;10036;47.812;9.274;2023-07-29T11:17:46;5.45;;;3.20;;
19754;SDS011;10036;47.812;9.274;2023-07-29T11:20:16;3.20;;;2.88;;
19754;SDS011;10036;47.812;9.274;2023-07-29T11:22:43;4.18;;;3.00;;
19754;SDS011;10036;47.812;9.274;2023-07-29T11:25:12;3.42;;;2.95;;
19754;SDS011;10036;47.812;9.274;2023-07-29T11:27:40;4.18;;;3.15;;
19754;SDS011;10036;47.812;9.274;2023-07-29T11:30:07;3.20;;;2.80;;
19754;SDS011;10036;47.812;9.274;2023-07-29T11:32:35;3.35;;;2.70;;
19754;SDS011;10036;47.812;9.274;2023-07-29T11:35:03;3.78;;;2.70;;
19754;SDS011;10036;47.812;9.274;2023-07-29T11:37:33;3.38;;;2.78;;
19754;SDS011;10036;47.812;9.274;2023-07-29T11:40:00;4.70;;;3.47;;
19754;SDS011;10036;47.812;9.274;2023-07-29T11:42:28;3.92;;;2.40;;
19754;SDS011;10036;47.812;9.274;2023-07-29T11:44:57;3.67;;;2.60;;
19754;SDS011;10036;47.812;9.274;2023-07-29T11:47:24;3.10;;;2.67;;
19754;SDS011;10036;47.812;9.274;2023-07-29T11:49:51;3.03;;;2.70;;
19754;SDS011;10036;47.812;9.274;2023-07-29T11:52:18;4.55;;;2.72;;
19754;SDS011;10036;47.812;9.274;2023-07-29T11:54:47;2.60;;;2.40;;
19754;SDS011;10036;47.812;9.274;2023-07-29T11:57:15;3.47;;;2.50;;
19754;SDS011;10036;47.812;9.274;2023-07-29T11:59:44;3.97;;;2.83;;
19754;SDS011;10036;47.812;9.274;2023-07-29T12:02:12;3.33;;;2.92;;
19754;SDS011;10036;47.812;9.274;2023-07-29T12:04:41;3.60;;;2.70;;
19754;SDS011;10036;47.812;9.274;2023-07-29T12:07:10;5.45;;;2.85;;
19754;SDS011;10036;47.812;9.274;2023-07-29T12:09:39;3.53;;;2.92;;
19754;SDS011;10036;47.812;9.274;2023-07-29T12:12:09;3.00;;;2.70;;
19754;SDS011;10036;47.812;9.274;2023-07-29T12:14:36;2.80;;;2.55;;
19754;SDS011;10036;47.812;9.274;2023-07-29T12:17:03;3.13;;;2.83;;
19754;SDS011;10036;47.812;9.274;2023-07-29T12:19:32;2.95;;;2.47;;
19754;SDS011;10036;47.812;9.274;2023-07-29T12:22:00;3.20;;;2.55;;
19754;SDS011;10036;47.812;9.274;2023-07-29T12:24:28;3.42;;;3.03;;
19754;SDS011;10036;47.812;9.274;2023-07-29T12:26:55;2.67;;;2.47;;
19754;SDS011;10036;47.812;9.274;2023-07-29T12:29:24;2.85;;;2.60;;
19754;SDS011;10036;47.812;9.274;2023-07-29T12:31:57;3.70;;;2.60;;
19754;SDS011;10036;47.812;9.274;2023-07-29T12:34:25;3.22;;;2.83;;
19754;SDS011;10036;47.812;9.274;2023-07-29T12:36:53;4.65;;;2.78;;
19754;SDS011;10036;47.812;9.274;2023-07-29T12:39:22;4.57;;;3.20;;
19754;SDS011;10036;47.812;9.274;2023-07-29T12:41:50;4.35;;;3.40;;
19754;SDS011;10036;47.812;9.274;2023-07-29T12:44:18;7.43;;;3.80;;
19754;SDS011;10036;47.812;9.274;2023-07-29T12:46:46;7.07;;;4.00;;
19754;SDS011;10036;47.812;9.274;2023-07-29T12:49:13;12.98;;;3.50;;
19754;SDS011;10036;47.812;9.274;2023-07-29T12:51:40;5.38;;;3.08;;
19754;SDS011;10036;47.812;9.274;2023-07-29T12:54:07;4.40;;;2.78;;
19754;SDS011;10036;47.812;9.274;2023-07-29T12:56:34;6.10;;;2.75;;
19754;SDS011;10036;47.812;9.274;2023-07-29T12:59:01;3.35;;;2.60;;
19754;SDS011;10036;47.812;9.274;2023-07-29T13:01:29;2.85;;;2.65;;
19754;SDS011;10036;47.812;9.274;2023-07-29T13:03:57;6.75;;;2.40;;
19754;SDS011;10036;47.812;9.274;2023-07-29T13:06:24;3.17;;;2.70;;
19754;SDS011;10036;47.812;9.274;2023-07-29T13:08:51;3.15;;;2.55;;
19754;SDS011;10036;47.812;9.274;2023-07-29T13:11:18;4.35;;;2.40;;
19754;SDS011;10036;47.812;9.274;2023-07-29T13:13:45;3.35;;;2.60;;
19754;SDS011;10036;47.812;9.274;2023-07-29T13:16:12;4.90;;;2.40;;
19754;SDS011;10036;47.812;9.274;2023-07-29T13:18:39;2.75;;;2.55;;
19754;SDS011;10036;47.812;9.274;2023-07-29T13:21:08;4.28;;;2.53;;
19754;SDS011;10036;47.812;9.274;2023-07-29T13:23:34;3.60;;;2.60;;
19754;SDS011;10036;47.812;9.274;2023-07-29T13:26:01;3.08;;;2.33;;
19754;SDS011;10036;47.812;9.274;2023-07-29T13:28:28;2.50;;;2.30;;
19754;SDS011;10036;47.812;9.274;2023-07-29T13:30:55;2.47;;;2.28;;
19754;SDS011;10036;47.812;9.274;2023-07-29T13:33:22;2.22;;;2.03;;
19754;SDS011;10036;47.812;9.274;2023-07-29T13:35:49;2.67;;;2.22;;
19754;SDS011;10036;47.812;9.274;2023-07-29T13:38:17;3.92;;;2.25;;
19754;SDS011;10036;47.812;9.274;2023-07-29T13:40:45;2.47;;;2.20;;
19754;SDS011;10036;47.812;9.274;2023-07-29T13:43:11;2.70;;;2.50;;
19754;SDS011;10036;47.812;9.274;2023-07-29T13:45:40;4.05;;;2.50;;
19754;SDS011;10036;47.812;9.274;2023-07-29T13:48:06;3.20;;;2.30;;
19754;SDS011;10036;47.812;9.274;2023-07-29T13:50:33;2.90;;;2.20;;
19754;SDS011;10036;47.812;9.274;2023-07-29T13:53:00;3.20;;;2.03;;
19754;SDS011;10036;47.812;9.274;2023-07-29T13:55:28;6.93;;;2.60;;
19754;SDS011;10036;47.812;9.274;2023-07-29T13:57:55;2.75;;;2.53;;
19754;SDS011;10036;47.812;9.274;2023-07-29T14:00:22;3.67;;;2.70;;
19754;SDS011;10036;47.812;9.274;2023-07-29T14:02:49;3.10;;;2.80;;
19754;SDS011;10036;47.812;9.274;2023-07-29T14:05:16;3.85;;;2.83;;
19754;SDS011;10036;47.812;9.274;2023-07-29T14:07:43;2.80;;;2.60;;
19754;SDS011;10036;47.812;9.274;2023-07-29T14:10:09;4.05;;;3.05;;
19754;SDS011;10036;47.812;9.274;2023-07-29T14:12:38;2.72;;;2.53;;
19754;SDS011;10036;47.812;9.274;2023-07-29T14:15:05;3.20;;;2.90;;
19754;SDS011;10036;47.812;9.274;2023-07-29T14:17:33;4.38;;;2.80;;
19754;SDS011;10036;47.812;9.274;2023-07-29T14:20:00;5.00;;;3.30;;
19754;SDS011;10036;47.812;9.274;2023-07-29T14:22:27;5.00;;;3.20;;
19754;SDS011;10036;47.812;9.274;2023-07-29T14:24:54;3.08;;;2.70;;
19754;SDS011;10036;47.812;9.274;2023-07-29T14:27:20;3.05;;;2.80;;
19754;SDS011;10036;47.812;9.274;2023-07-29T14:29:49;3.13;;;2.65;;
19754;SDS011;10036;47.812;9.274;2023-07-29T14:32:15;2.72;;;2.45;;
19754;SDS011;10036;47.812;9.274;2023-07-29T14:34:42;5.82;;;3.10;;
19754;SDS011;10036;47.812;9.274;2023-07-29T14:37:09;3.10;;;2.40;;
19754;SDS011;10036;47.812;9.274;2023-07-29T14:39:36;3.28;;;2.42;;
19754;SDS011;10036;47.812;9.274;2023-07-29T14:42:03;3.30;;;2.63;;
19754;SDS011;10036;47.812;9.274;2023-07-29T14:44:30;2.55;;;2.17;;
19754;SDS011;10036;47.812;9.274;2023-07-29T14:46:58;3.25;;;2.20;;
19754;SDS011;10036;47.812;9.274;2023-07-29T14:49:25;3.25;;;2.22;;
19754;SDS011;10036;47.812;9.274;2023-07-29T14:51:52;4.65;;;2.20;;